createdAt,value
2023-04-18T00:01:14.850Z,9.92
2023-04-18T00:03:38.505Z,9.88
2023-04-18T00:06:00.369Z,9.81
2023-04-18T00:08:22.140Z,9.77
2023-04-18T00:10:43.791Z,9.74
2023-04-18T00:13:05.651Z,9.73
2023-04-18T00:15:29.180Z,9.67
2023-04-18T00:17:50.977Z,9.62
2023-04-18T00:20:13.006Z,9.56
2023-04-18T00:22:34.654Z,9.56
2023-04-18T00:24:56.326Z,9.56
2023-04-18T00:27:19.149Z,9.52
2023-04-18T00:29:40.875Z,9.51
2023-04-18T00:32:02.529Z,9.50
2023-04-18T00:34:25.609Z,9.49
2023-04-18T00:36:48.622Z,9.43
2023-04-18T00:39:10.744Z,9.38
2023-04-18T00:41:32.534Z,9.37
2023-04-18T00:43:55.153Z,9.30
2023-04-18T00:46:16.810Z,9.21
2023-04-18T00:48:39.606Z,9.18
2023-04-18T00:51:01.779Z,9.07
2023-04-18T00:53:24.113Z,9.00
2023-04-18T00:55:46.021Z,8.96
2023-04-18T00:58:08.132Z,8.89
2023-04-18T01:00:30.056Z,8.86
2023-04-18T01:02:54.058Z,8.82
2023-04-18T01:05:16.517Z,8.74
2023-04-18T01:07:41.676Z,8.71
2023-04-18T01:10:04.335Z,8.68
2023-04-18T01:12:26.023Z,8.62
2023-04-18T01:14:49.464Z,8.56
2023-04-18T01:17:11.169Z,8.54
2023-04-18T01:19:32.942Z,8.53
2023-04-18T01:21:54.599Z,8.46
2023-04-18T01:24:17.713Z,8.41
2023-04-18T01:26:40.333Z,8.40
2023-04-18T01:29:02.078Z,8.38
2023-04-18T01:31:24.906Z,8.35
2023-04-18T01:33:46.538Z,8.30
2023-04-18T01:36:10.916Z,8.27
2023-04-18T01:38:33.152Z,8.23
2023-04-18T01:40:55.791Z,8.20
2023-04-18T01:43:17.490Z,8.08
2023-04-18T01:45:39.129Z,8.03
2023-04-18T01:48:00.925Z,7.96
2023-04-18T01:50:22.881Z,7.93
2023-04-18T01:52:44.582Z,7.85
2023-04-18T01:55:06.690Z,7.84
2023-04-18T01:57:28.914Z,7.81
2023-04-18T01:59:50.625Z,7.75
2023-04-18T02:02:13.403Z,7.71
2023-04-18T02:04:35.803Z,7.64
2023-04-18T02:06:57.399Z,7.58
2023-04-18T02:09:19.157Z,7.52
2023-04-18T02:11:40.752Z,7.47
2023-04-18T02:14:02.493Z,7.46
2023-04-18T02:16:24.191Z,7.43
2023-04-18T02:18:46.683Z,7.42
2023-04-18T02:21:11.105Z,7.36
2023-04-18T02:23:32.792Z,7.36
2023-04-18T02:25:54.550Z,7.34
2023-04-18T02:28:16.269Z,7.32
2023-04-18T02:30:38.015Z,7.24
2023-04-18T02:32:59.691Z,7.23
2023-04-18T02:35:21.600Z,7.13
2023-04-18T02:37:43.535Z,7.14
2023-04-18T02:40:08.770Z,7.12
2023-04-18T02:42:31.507Z,7.07
2023-04-18T02:44:53.193Z,7.09
2023-04-18T02:47:14.908Z,7.06
2023-04-18T02:49:39.738Z,7.01
2023-04-18T02:52:01.593Z,6.98
2023-04-18T02:54:24.666Z,6.92
2023-04-18T02:56:54.979Z,6.94
2023-04-18T02:59:48.566Z,6.91
2023-04-18T03:02:29.066Z,6.91
2023-04-18T03:04:56.600Z,6.83
2023-04-18T03:07:18.769Z,6.79
2023-04-18T03:09:40.587Z,6.80
2023-04-18T03:12:11.450Z,6.75
2023-04-18T03:14:33.892Z,6.73
2023-04-18T03:16:55.780Z,6.72
2023-04-18T03:19:21.862Z,6.72
2023-04-18T03:21:45.071Z,6.72
2023-04-18T03:24:08.116Z,6.72
2023-04-18T03:26:30.851Z,6.68
2023-04-18T03:28:52.545Z,6.66
2023-04-18T03:31:14.351Z,6.59
2023-04-18T03:33:39.197Z,6.55
2023-04-18T03:36:05.892Z,6.49
2023-04-18T03:38:27.575Z,6.45
2023-04-18T03:40:49.436Z,6.45
2023-04-18T03:43:20.972Z,6.49
2023-04-18T03:45:44.109Z,6.46
2023-04-18T03:48:07.225Z,6.45
2023-04-18T03:50:33.360Z,6.45
2023-04-18T03:52:56.294Z,6.38
2023-04-18T03:55:19.665Z,6.36
2023-04-18T03:57:41.593Z,6.32
2023-04-18T04:00:08.760Z,6.27
2023-04-18T04:02:37.365Z,6.25
2023-04-18T04:04:59.162Z,6.28
2023-04-18T04:07:21.486Z,6.28
2023-04-18T04:09:43.154Z,6.27
2023-04-18T04:12:05.347Z,6.24
2023-04-18T04:14:27.765Z,6.16
2023-04-18T04:16:49.500Z,6.15
2023-04-18T04:19:12.249Z,6.16
2023-04-18T04:21:40.708Z,6.11
2023-04-18T04:24:06.990Z,6.14
2023-04-18T04:26:34.475Z,6.09
2023-04-18T04:29:05.118Z,6.04
2023-04-18T04:31:28.998Z,6.04
2023-04-18T04:33:51.650Z,6.04
2023-04-18T04:36:18.796Z,6.01
2023-04-18T04:38:44.424Z,6.04
2023-04-18T04:41:07.700Z,6.03
2023-04-18T04:43:29.545Z,6.05
2023-04-18T04:45:53.112Z,6.02
2023-04-18T04:48:19.990Z,6.04
2023-04-18T04:50:42.045Z,6.02
2023-04-18T04:53:06.819Z,6.04
2023-04-18T04:55:28.610Z,6.07
2023-04-18T04:57:50.490Z,6.09
2023-04-18T05:00:35.311Z,6.09
2023-04-18T05:02:57.551Z,6.02
2023-04-18T05:05:21.182Z,6.08
2023-04-18T05:07:42.940Z,6.12
2023-04-18T05:10:05.583Z,6.12
2023-04-18T05:12:27.230Z,6.13
2023-04-18T05:14:48.886Z,6.14
2023-04-18T05:17:10.614Z,6.15
2023-04-18T05:19:32.290Z,6.19
2023-04-18T05:21:53.960Z,6.24
2023-04-18T05:24:15.827Z,6.26
2023-04-18T05:26:38.283Z,6.32
2023-04-18T05:29:00.014Z,6.34
2023-04-18T05:31:22.935Z,6.42
2023-04-18T05:33:44.631Z,6.50
2023-04-18T05:36:07.614Z,6.55
2023-04-18T05:38:29.442Z,6.63
2023-04-18T05:40:51.280Z,6.67
2023-04-18T05:43:13.016Z,6.74
2023-04-18T05:45:35.027Z,6.86
2023-04-18T05:47:57.207Z,6.90
2023-04-18T05:50:18.827Z,6.96
2023-04-18T05:52:40.711Z,7.00
2023-04-18T05:55:02.343Z,6.98
2023-04-18T05:57:24.113Z,7.07
2023-04-18T05:59:45.818Z,7.12
2023-04-18T06:02:13.250Z,7.17
2023-04-18T06:04:35.428Z,7.24
2023-04-18T06:06:57.245Z,7.25
2023-04-18T06:09:18.952Z,7.29
2023-04-18T06:11:40.934Z,7.37
2023-04-18T06:14:03.580Z,7.45
2023-04-18T06:16:25.402Z,7.47
2023-04-18T06:18:47.374Z,7.50
2023-04-18T06:21:09.128Z,7.56
2023-04-18T06:23:31.390Z,7.59
2023-04-18T06:25:53.386Z,7.63
2023-04-18T06:28:15.270Z,7.62
2023-04-18T06:30:37.331Z,7.65
2023-04-18T06:32:59.403Z,7.63
2023-04-18T06:35:21.279Z,7.66
2023-04-18T06:37:44.852Z,7.66
2023-04-18T06:40:07.778Z,7.67
2023-04-18T06:42:29.531Z,7.76
2023-04-18T06:44:51.723Z,7.84
2023-04-18T06:47:14.061Z,7.87
2023-04-18T06:49:35.992Z,7.90
2023-04-18T06:51:57.872Z,7.94
2023-04-18T06:54:20.087Z,7.97
2023-04-18T06:56:41.797Z,8.00
2023-04-18T06:59:04.097Z,8.06
2023-04-18T07:01:26.219Z,8.10
2023-04-18T07:03:48.517Z,8.20
2023-04-18T07:06:11.181Z,8.29
2023-04-18T07:08:34.851Z,8.40
2023-04-18T07:10:56.768Z,8.50
2023-04-18T07:13:18.504Z,8.66
2023-04-18T07:15:41.860Z,8.81
2023-04-18T07:18:03.855Z,8.93
2023-04-18T07:20:25.630Z,9.02
2023-04-18T07:22:48.187Z,9.12
2023-04-18T07:25:10.105Z,9.23
2023-04-18T07:27:36.538Z,9.32
2023-04-18T07:29:58.757Z,9.39
2023-04-18T07:32:20.576Z,9.48
2023-04-18T07:34:42.775Z,9.54
2023-04-18T07:37:04.972Z,9.56
2023-04-18T07:39:27.145Z,9.59
2023-04-18T07:41:48.969Z,9.56
2023-04-18T07:44:10.843Z,9.57
2023-04-18T07:46:34.160Z,9.62
2023-04-18T07:48:56.429Z,9.69
2023-04-18T07:51:18.554Z,9.73
2023-04-18T07:53:44.030Z,9.81
2023-04-18T07:56:06.131Z,9.95
2023-04-18T07:58:28.401Z,10.06
2023-04-18T08:00:50.951Z,10.17
2023-04-18T08:03:13.767Z,10.26
2023-04-18T08:05:36.223Z,10.34
2023-04-18T08:07:58.210Z,10.40
2023-04-18T08:10:22.508Z,10.49
2023-04-18T08:12:45.849Z,10.65
2023-04-18T08:15:09.303Z,10.79
2023-04-18T08:17:31.682Z,10.89
2023-04-18T08:19:54.213Z,10.95
2023-04-18T08:22:16.483Z,10.94
2023-04-18T08:24:39.618Z,11.03
2023-04-18T08:27:02.708Z,11.13
2023-04-18T08:29:24.657Z,11.22
2023-04-18T08:31:47.441Z,11.37
2023-04-18T08:34:09.481Z,11.36
2023-04-18T08:36:31.704Z,11.37
2023-04-18T08:38:53.731Z,11.31
2023-04-18T08:41:25.241Z,11.35
2023-04-18T08:43:51.123Z,11.47
2023-04-18T08:46:13.273Z,11.68
2023-04-18T08:48:35.342Z,11.96
2023-04-18T08:50:59.311Z,12.13
2023-04-18T08:53:21.141Z,12.17
2023-04-18T08:55:43.791Z,12.13
2023-04-18T08:58:07.047Z,11.96
2023-04-18T09:00:29.370Z,11.80
2023-04-18T09:02:57.924Z,11.71
2023-04-18T09:05:21.116Z,11.55
2023-04-18T09:07:43.294Z,11.50
2023-04-18T09:10:05.750Z,11.75
2023-04-18T09:12:29.775Z,12.03
2023-04-18T09:14:57.608Z,12.30
2023-04-18T09:17:46.054Z,12.72
2023-04-18T09:20:11.027Z,13.09
2023-04-18T09:22:51.337Z,13.25
2023-04-18T09:25:26.220Z,13.35
2023-04-18T09:27:48.062Z,13.18
2023-04-18T09:30:11.172Z,12.95
2023-04-18T09:32:33.343Z,12.90
2023-04-18T09:35:01.375Z,12.83
2023-04-18T09:37:26.401Z,12.78
2023-04-18T09:39:49.982Z,12.65
2023-04-18T09:42:12.780Z,12.56
2023-04-18T09:44:35.013Z,12.55
2023-04-18T09:46:57.002Z,12.61
2023-04-18T09:49:19.050Z,12.61
2023-04-18T09:51:43.201Z,12.59
2023-04-18T09:54:06.552Z,12.53
2023-04-18T09:56:32.692Z,12.62
2023-04-18T09:59:13.211Z,12.67
2023-04-18T10:01:36.677Z,12.58
2023-04-18T10:04:07.932Z,12.47
2023-04-18T10:06:34.105Z,12.34
2023-04-18T10:08:56.769Z,12.35
2023-04-18T10:11:20.222Z,12.47
2023-04-18T10:13:47.908Z,12.68
2023-04-18T10:16:11.148Z,12.91
2023-04-18T10:18:33.114Z,13.11
2023-04-18T10:21:05.586Z,13.15
2023-04-18T10:23:39.281Z,13.07
2023-04-18T10:26:03.363Z,12.97
2023-04-18T10:28:26.724Z,12.91
2023-04-18T10:30:52.382Z,12.91
2023-04-18T10:33:31.846Z,12.98
2023-04-18T10:35:57.991Z,12.99
2023-04-18T10:38:24.452Z,12.96
2023-04-18T10:40:46.341Z,12.95
2023-04-18T10:43:08.222Z,12.93
2023-04-18T10:45:32.546Z,12.89
2023-04-18T10:48:31.188Z,12.86
2023-04-18T10:51:20.652Z,12.73
2023-04-18T10:53:56.992Z,12.67
2023-04-18T10:56:19.084Z,12.61
2023-04-18T10:58:43.709Z,12.63
2023-04-18T11:01:07.181Z,12.63
2023-04-18T11:03:36.050Z,12.69
2023-04-18T11:06:04.359Z,12.66
2023-04-18T11:08:26.427Z,12.58
2023-04-18T11:10:57.996Z,12.56
2023-04-18T11:13:19.870Z,12.52
2023-04-18T11:15:41.735Z,12.56
2023-04-18T11:18:04.995Z,12.66
2023-04-18T11:20:28.409Z,12.66
2023-04-18T11:22:56.312Z,12.68
2023-04-18T11:25:22.249Z,12.71
2023-04-18T11:27:46.508Z,12.78
2023-04-18T11:30:09.137Z,12.80
2023-04-18T11:32:31.097Z,12.77
2023-04-18T11:34:54.938Z,12.77
2023-04-18T11:37:16.818Z,12.78
2023-04-18T11:39:43.836Z,12.65
2023-04-18T11:42:05.806Z,12.56
2023-04-18T11:44:27.549Z,12.54
2023-04-18T11:46:51.892Z,12.55
2023-04-18T11:49:32.834Z,12.66
2023-04-18T11:51:55.630Z,12.82
2023-04-18T11:54:39.460Z,13.06
2023-04-18T11:57:02.447Z,13.24
2023-04-18T11:59:24.292Z,13.37
2023-04-18T12:01:46.300Z,13.23
2023-04-18T12:04:09.086Z,13.12
2023-04-18T12:06:51.778Z,13.07
2023-04-18T12:09:15.981Z,12.91
2023-04-18T12:11:41.552Z,12.95
2023-04-18T12:14:04.190Z,12.98
2023-04-18T12:16:28.305Z,13.07
2023-04-18T12:18:51.057Z,13.07
2023-04-18T12:21:13.864Z,13.11
2023-04-18T12:23:42.436Z,13.24
2023-04-18T12:26:14.554Z,13.36
2023-04-18T12:28:36.430Z,13.48
2023-04-18T12:30:58.899Z,13.48
2023-04-18T12:33:20.850Z,13.51
2023-04-18T12:35:43.027Z,13.57
2023-04-18T12:38:05.132Z,13.69
2023-04-18T12:40:28.766Z,13.80
2023-04-18T12:42:51.537Z,13.94
2023-04-18T12:45:16.453Z,13.97
2023-04-18T12:47:40.878Z,13.94
2023-04-18T12:50:03.160Z,13.95
2023-04-18T12:52:24.931Z,13.97
2023-04-18T12:54:46.663Z,13.94
2023-04-18T12:57:08.384Z,13.86
2023-04-18T12:59:30.752Z,13.85
2023-04-18T13:01:52.631Z,13.83
2023-04-18T13:04:14.668Z,13.81
2023-04-18T13:06:37.778Z,13.82
2023-04-18T13:08:59.560Z,13.87
2023-04-18T13:11:22.539Z,13.80
2023-04-18T13:13:44.589Z,13.78
2023-04-18T13:16:06.718Z,13.81
2023-04-18T13:18:28.406Z,13.87
2023-04-18T13:20:50.400Z,13.90
2023-04-18T13:23:12.398Z,13.99
2023-04-18T13:25:34.137Z,14.10
2023-04-18T13:27:57.649Z,14.17
2023-04-18T13:30:19.527Z,14.23
2023-04-18T13:32:42.005Z,14.28
2023-04-18T13:35:08.270Z,14.32
2023-04-18T13:37:30.083Z,14.33
2023-04-18T13:39:52.242Z,14.31
2023-04-18T13:42:15.966Z,14.27
2023-04-18T13:44:38.561Z,14.31
2023-04-18T13:47:01.590Z,14.41
2023-04-18T13:49:23.553Z,14.44
2023-04-18T13:51:46.269Z,14.52
2023-04-18T13:54:08.196Z,14.56
2023-04-18T13:56:30.082Z,14.58
2023-04-18T13:58:52.283Z,14.63
2023-04-18T14:01:16.607Z,14.75
2023-04-18T14:03:40.644Z,14.84
2023-04-18T14:06:04.711Z,14.92
2023-04-18T14:08:26.482Z,15.17
2023-04-18T14:10:48.583Z,15.27
2023-04-18T14:13:10.718Z,15.40
2023-04-18T14:15:33.288Z,15.56
2023-04-18T14:17:55.454Z,15.64
2023-04-18T14:20:20.472Z,15.79
2023-04-18T14:22:42.838Z,15.81
2023-04-18T14:25:05.470Z,15.79
2023-04-18T14:27:27.810Z,15.79
2023-04-18T14:29:49.986Z,15.70
2023-04-18T14:32:12.364Z,15.65
2023-04-18T14:34:35.860Z,15.55
2023-04-18T14:36:58.696Z,15.51
2023-04-18T14:39:21.669Z,15.39
2023-04-18T14:41:43.645Z,15.28
2023-04-18T14:44:06.580Z,15.14
2023-04-18T14:46:29.381Z,14.98
2023-04-18T14:48:53.055Z,14.82
2023-04-18T14:51:16.841Z,14.76
2023-04-18T14:53:39.221Z,14.93
2023-04-18T14:56:01.135Z,15.20
2023-04-18T14:58:22.936Z,15.33
2023-04-18T15:00:44.929Z,15.55
2023-04-18T15:03:09.719Z,15.85
2023-04-18T15:05:34.952Z,16.02
2023-04-18T15:07:58.272Z,16.10
2023-04-18T15:10:22.353Z,16.23
2023-04-18T15:12:44.164Z,16.25
2023-04-18T15:15:06.918Z,16.29
2023-04-18T15:17:30.323Z,16.32
2023-04-18T15:19:52.521Z,16.32
2023-04-18T15:22:14.295Z,16.36
2023-04-18T15:24:37.296Z,16.40
2023-04-18T15:26:59.305Z,16.37
2023-04-18T15:29:21.356Z,16.38
2023-04-18T15:31:44.564Z,16.43
2023-04-18T15:34:08.139Z,16.50
2023-04-18T15:36:31.861Z,16.55
2023-04-18T15:38:53.826Z,16.46
2023-04-18T15:41:15.728Z,16.45
2023-04-18T15:43:37.530Z,16.56
2023-04-18T15:45:59.495Z,16.68
2023-04-18T15:48:21.713Z,16.75
2023-04-18T15:50:43.484Z,16.79
2023-04-18T15:53:05.658Z,16.88
2023-04-18T15:55:27.898Z,16.81
2023-04-18T15:57:49.799Z,16.49
2023-04-18T16:00:21.723Z,16.19
2023-04-18T16:02:45.257Z,16.11
2023-04-18T16:05:08.648Z,15.99
2023-04-18T16:07:30.612Z,16.04
2023-04-18T16:09:52.712Z,16.19
2023-04-18T16:12:14.831Z,16.24
2023-04-18T16:14:36.677Z,16.12
2023-04-18T16:16:59.247Z,15.96
2023-04-18T16:19:21.634Z,15.85
2023-04-18T16:21:44.161Z,15.81
2023-04-18T16:24:06.843Z,15.73
2023-04-18T16:26:28.944Z,15.54
2023-04-18T16:28:51.264Z,15.38
2023-04-18T16:31:14.250Z,15.17
2023-04-18T16:33:36.178Z,15.05
2023-04-18T16:36:02.506Z,15.08
2023-04-18T16:38:27.196Z,15.11
2023-04-18T16:40:49.221Z,15.10
2023-04-18T16:43:11.808Z,15.16
2023-04-18T16:45:33.757Z,15.27
2023-04-18T16:47:57.254Z,15.21
2023-04-18T16:50:19.638Z,15.31
2023-04-18T16:52:41.620Z,15.40
2023-04-18T16:55:04.583Z,15.43
2023-04-18T16:57:26.890Z,15.45
2023-04-18T16:59:49.114Z,15.43
2023-04-18T17:02:12.066Z,15.51
2023-04-18T17:04:34.161Z,15.61
2023-04-18T17:06:56.623Z,15.67
2023-04-18T17:09:19.923Z,15.69
2023-04-18T17:11:42.591Z,15.77
2023-04-18T17:14:04.713Z,15.84
2023-04-18T17:16:26.765Z,15.80
2023-04-18T17:18:48.587Z,15.66
2023-04-18T17:21:13.037Z,15.57
2023-04-18T17:23:34.807Z,15.43
2023-04-18T17:25:56.534Z,15.35
2023-04-18T17:28:19.567Z,15.33
2023-04-18T17:30:42.158Z,15.31
2023-04-18T17:33:04.322Z,15.24
2023-04-18T17:35:26.321Z,15.15
2023-04-18T17:37:50.263Z,15.15
2023-04-18T17:40:12.430Z,15.17
2023-04-18T17:42:34.419Z,15.19
2023-04-18T17:44:56.182Z,15.22
2023-04-18T17:47:18.415Z,15.22
2023-04-18T17:49:40.208Z,15.23
2023-04-18T17:52:03.225Z,15.28
2023-04-18T17:54:25.232Z,15.31
2023-04-18T17:56:47.268Z,15.34
2023-04-18T17:59:10.124Z,15.39
2023-04-18T18:01:32.922Z,15.39
2023-04-18T18:03:54.947Z,15.36
2023-04-18T18:06:16.843Z,15.39
2023-04-18T18:08:39.211Z,15.32
2023-04-18T18:11:01.697Z,15.20
2023-04-18T18:13:23.338Z,15.10
2023-04-18T18:15:45.631Z,15.07
2023-04-18T18:18:23.151Z,15.04
2023-04-18T18:20:45.621Z,14.98
2023-04-18T18:23:07.671Z,14.90
2023-04-18T18:25:29.906Z,14.75
2023-04-18T18:27:52.350Z,14.56
2023-04-18T18:30:15.825Z,14.34
2023-04-18T18:32:37.889Z,14.13
2023-04-18T18:34:59.962Z,13.94
2023-04-18T18:37:23.286Z,13.77
2023-04-18T18:39:45.044Z,13.59
2023-04-18T18:42:08.474Z,13.45
2023-04-18T18:44:30.640Z,13.35
2023-04-18T18:46:52.471Z,13.24
2023-04-18T18:49:14.982Z,13.18
2023-04-18T18:51:37.301Z,13.10
2023-04-18T18:53:59.038Z,13.02
2023-04-18T18:56:21.220Z,12.92
2023-04-18T18:58:43.921Z,12.87
2023-04-18T19:01:06.651Z,12.80
2023-04-18T19:03:28.599Z,12.78
2023-04-18T19:05:51.859Z,12.69
2023-04-18T19:08:14.285Z,12.62
2023-04-18T19:10:36.324Z,12.59
2023-04-18T19:12:57.996Z,12.54
2023-04-18T19:15:19.768Z,12.47
2023-04-18T19:17:41.690Z,12.42
2023-04-18T19:20:04.094Z,12.38
2023-04-18T19:22:25.988Z,12.32
2023-04-18T19:24:47.978Z,12.27
2023-04-18T19:27:09.905Z,12.22
2023-04-18T19:29:32.849Z,12.19
2023-04-18T19:31:54.827Z,12.15
2023-04-18T19:34:18.822Z,12.13
2023-04-18T19:36:40.504Z,12.14
2023-04-18T19:39:02.125Z,12.13
2023-04-18T19:41:25.954Z,12.12
2023-04-18T19:43:48.441Z,12.11
2023-04-18T19:46:10.564Z,12.08
2023-04-18T19:48:32.635Z,12.06
2023-04-18T19:50:56.859Z,12.04
2023-04-18T19:53:20.372Z,11.93
2023-04-18T19:55:44.576Z,11.90
2023-04-18T19:58:06.466Z,11.83
2023-04-18T20:00:28.428Z,11.82
2023-04-18T20:02:50.441Z,11.77
2023-04-18T20:05:12.967Z,11.71
2023-04-18T20:07:36.038Z,11.73
2023-04-18T20:09:57.708Z,11.72
2023-04-18T20:12:19.593Z,11.73
2023-04-18T20:14:41.363Z,11.77
2023-04-18T20:17:03.093Z,11.80
2023-04-18T20:19:25.710Z,11.81
2023-04-18T20:21:47.444Z,11.77
2023-04-18T20:24:09.669Z,11.73
2023-04-18T20:26:31.460Z,11.69
2023-04-18T20:28:53.502Z,11.65
2023-04-18T20:31:15.617Z,11.60
2023-04-18T20:33:38.084Z,11.57
2023-04-18T20:35:59.988Z,11.54
2023-04-18T20:38:26.220Z,11.50
2023-04-18T20:40:51.501Z,11.50
2023-04-18T20:43:17.369Z,11.48
2023-04-18T20:45:42.820Z,11.45
2023-04-18T20:48:04.952Z,11.46
2023-04-18T20:50:27.767Z,11.42
2023-04-18T20:52:50.362Z,11.41
2023-04-18T20:55:12.567Z,11.37
2023-04-18T20:57:34.373Z,11.35
2023-04-18T20:59:58.584Z,11.34
2023-04-18T21:02:20.305Z,11.31
2023-04-18T21:04:42.158Z,11.28
2023-04-18T21:07:04.021Z,11.25
2023-04-18T21:09:26.077Z,11.23
2023-04-18T21:11:47.822Z,11.18
2023-04-18T21:14:10.801Z,11.17
2023-04-18T21:16:32.775Z,11.17
2023-04-18T21:18:55.175Z,11.13
2023-04-18T21:21:17.018Z,11.11
2023-04-18T21:23:43.546Z,11.08
2023-04-18T21:26:05.472Z,11.06
2023-04-18T21:28:27.181Z,11.04
2023-04-18T21:30:48.827Z,11.03
2023-04-18T21:33:10.795Z,10.99
2023-04-18T21:35:32.543Z,10.96
2023-04-18T21:37:54.217Z,10.94
2023-04-18T21:40:15.966Z,10.92
2023-04-18T21:42:37.689Z,10.90
2023-04-18T21:44:59.303Z,10.90
2023-04-18T21:47:21.060Z,10.89
2023-04-18T21:49:43.017Z,10.88
2023-04-18T21:52:04.938Z,10.86
2023-04-18T21:54:26.547Z,10.84
2023-04-18T21:56:48.248Z,10.82
2023-04-18T21:59:10.079Z,10.78
2023-04-18T22:01:34.337Z,10.74
2023-04-18T22:03:56.375Z,10.73
2023-04-18T22:06:18.211Z,10.74
2023-04-18T22:08:39.884Z,10.73
2023-04-18T22:11:01.870Z,10.67
2023-04-18T22:13:25.683Z,10.65
2023-04-18T22:15:47.557Z,10.60
2023-04-18T22:18:09.292Z,10.59
2023-04-18T22:20:31.615Z,10.57
2023-04-18T22:22:56.432Z,10.55
2023-04-18T22:25:18.097Z,10.48
2023-04-18T22:27:40.150Z,10.44
2023-04-18T22:30:01.839Z,10.40
2023-04-18T22:32:23.839Z,10.37
2023-04-18T22:34:45.697Z,10.37
2023-04-18T22:37:07.425Z,10.36
2023-04-18T22:39:31.092Z,10.37
2023-04-18T22:41:52.825Z,10.38
2023-04-18T22:44:14.589Z,10.41
2023-04-18T22:46:38.558Z,10.43
2023-04-18T22:49:00.661Z,10.44
2023-04-18T22:51:23.567Z,10.45
2023-04-18T22:53:45.287Z,10.50
2023-04-18T22:56:07.413Z,10.53
2023-04-18T22:58:29.758Z,10.57
2023-04-18T23:00:51.425Z,10.61
2023-04-18T23:03:13.340Z,10.66
2023-04-18T23:05:35.403Z,10.70
2023-04-18T23:07:59.023Z,10.77
2023-04-18T23:10:23.234Z,10.81
2023-04-18T23:12:44.913Z,10.87
2023-04-18T23:15:07.411Z,10.92
2023-04-18T23:17:29.248Z,10.95
2023-04-18T23:19:50.937Z,10.97
2023-04-18T23:22:12.685Z,11.00
2023-04-18T23:24:34.388Z,11.01
2023-04-18T23:26:57.035Z,11.04
2023-04-18T23:29:18.721Z,11.07
2023-04-18T23:31:40.834Z,11.12
2023-04-18T23:34:02.708Z,11.13
2023-04-18T23:36:24.797Z,11.16
2023-04-18T23:38:46.821Z,11.20
2023-04-18T23:41:09.492Z,11.20
2023-04-18T23:43:31.280Z,11.20
2023-04-18T23:45:53.009Z,11.23
2023-04-18T23:48:14.696Z,11.25
2023-04-18T23:50:36.668Z,11.27
2023-04-18T23:52:58.336Z,11.27
2023-04-18T23:55:20.161Z,11.28
2023-04-18T23:57:41.786Z,11.27
